Time;durP1;ratioP1;P1;durP2;ratioP2;P2;SDS_P1;SDS_P2;PMS_P1;PMS_P2;Temp;Humidity;BMP_temperature;BMP_pressure;BME280_temperature;BME280_humidity;BME280_pressure;Samples;Min_cycle;Max_cycle;Signal;HPM_P1;HPM_P2
2023/01/27 00:01:31;;;;;;;43.42;18.63;;;;;;;0.83;65.66;99424.72;5178621;28;20140;-70
2023/01/27 00:04:21;;;;;;;41.25;20.13;;;;;;;0.65;67.02;99434.25;5181923;28;20050;-70
2023/01/27 00:07:12;;;;;;;51.65;20.27;;;;;;;1.20;66.43;99420.38;5182188;28;20107;-71
2023/01/27 00:10:02;;;;;;;43.85;19.05;;;;;;;1.04;66.41;99421.09;5182001;28;20086;-72
2023/01/27 00:16:01;;;;;;;43.65;20.25;;;;;;;1.03;65.80;99418.56;5182442;28;20053;-72
2023/01/27 00:18:52;;;;;;;41.38;19.88;;;;;;;1.02;66.01;99409.88;5181838;28;20057;-72
2023/01/27 00:24:50;;;;;;;36.45;17.13;;;;;;;0.72;66.02;99419.16;5181138;28;20164;-73
2023/01/27 00:27:40;;;;;;;35.53;16.20;;;;;;;0.54;66.53;99408.66;5188618;28;20128;-72
2023/01/27 00:30:30;;;;;;;35.20;16.63;;;;;;;0.94;65.88;99410.25;5168181;28;20056;-72
2023/01/27 00:33:24;;;;;;;39.42;18.33;;;;;;;1.20;64.45;99420.38;5181782;28;20056;-70
2023/01/27 00:36:14;;;;;;;33.88;16.88;;;;;;;1.08;65.39;99411.34;5181857;28;20049;-70
2023/01/27 00:39:06;;;;;;;48.15;20.65;;;;;;;1.26;65.03;99418.31;5180208;28;20057;-71
2023/01/27 00:41:56;;;;;;;37.20;17.35;;;;;;;1.11;64.11;99427.72;5185950;28;20060;-71
2023/01/27 00:47:55;;;;;;;36.00;16.45;;;;;;;1.20;64.94;99426.44;5165798;28;20053;-70
2023/01/27 00:50:46;;;;;;;34.10;15.57;;;;;;;0.85;65.27;99423.72;5180730;28;20691;-70
2023/01/27 00:53:37;;;;;;;32.63;15.60;;;;;;;1.00;64.54;99405.66;5179791;28;20053;-70
2023/01/27 00:56:28;;;;;;;35.20;15.80;;;;;;;1.13;64.68;99399.78;5185417;28;20046;-70
2023/01/27 00:59:18;;;;;;;33.72;15.52;;;;;;;1.14;64.00;99418.91;5203051;28;20500;-71
2023/01/27 01:02:09;;;;;;;36.92;16.08;;;;;;;1.14;64.15;99414.50;5167046;28;20065;-71
2023/01/27 01:04:59;;;;;;;36.67;16.20;;;;;;;1.15;64.50;99407.53;5180439;28;20076;-71
2023/01/27 01:07:51;;;;;;;33.22;15.70;;;;;;;1.10;64.02;99415.59;5167606;28;20057;-71
2023/01/27 01:10:42;;;;;;;28.98;14.77;;;;;;;1.19;64.02;99416.88;5181135;28;20167;-70
2023/01/27 01:13:32;;;;;;;35.97;15.50;;;;;;;1.22;64.11;99429.81;5182032;28;20060;-70
2023/01/27 01:16:24;;;;;;;32.28;15.85;;;;;;;1.16;64.58;99430.13;5180812;28;20049;-72
2023/01/27 01:19:14;;;;;;;34.92;14.63;;;;;;;0.98;64.95;99423.16;5160911;28;20519;-70
2023/01/27 01:22:05;;;;;;;33.65;14.93;;;;;;;1.22;64.27;99436.81;5165259;28;20504;-71
2023/01/27 01:24:56;;;;;;;36.15;15.30;;;;;;;1.17;64.96;99440.50;5164625;28;20057;-70
2023/01/27 01:27:46;;;;;;;39.00;15.27;;;;;;;1.06;63.91;99439.28;5205561;28;20050;-70
2023/01/27 01:30:37;;;;;;;34.80;15.80;;;;;;;1.14;63.95;99437.19;5205212;28;20056;-72
2023/01/27 01:33:27;;;;;;;31.67;15.02;;;;;;;1.08;64.15;99432.25;5205820;28;20057;-73
2023/01/27 01:36:19;;;;;;;33.10;14.75;;;;;;;1.18;64.15;99433.50;5204832;28;20136;-72
2023/01/27 01:39:10;;;;;;;40.78;15.55;;;;;;;1.25;64.40;99427.03;5204658;28;20447;-72
2023/01/27 01:42:00;;;;;;;31.05;14.73;;;;;;;1.06;64.15;99415.78;5205705;28;20055;-72
2023/01/27 01:45:29;;;;;;;39.45;15.20;;;;;;;1.24;63.04;99420.13;5205408;28;20056;-72
2023/01/27 01:48:28;;;;;;;32.65;14.95;;;;;;;1.26;64.65;99420.94;5205621;28;20056;-72
2023/01/27 01:51:35;;;;;;;33.88;14.80;;;;;;;1.22;63.85;99424.59;5204620;28;20156;-71
2023/01/27 01:54:29;;;;;;;28.95;13.77;;;;;;;1.18;64.34;99410.81;5204605;28;20175;-71
2023/01/27 01:57:26;;;;;;;;;;;;;;;1.25;63.70;99407.91;5205727;28;20164;-71
2023/01/27 02:00:16;;;;;;;35.55;14.45;;;;;;;1.30;64.02;99411.16;5204195;28;20041;-70
2023/01/27 02:03:10;;;;;;;30.35;12.93;;;;;;;1.24;63.26;99412.31;5205246;28;20060;-71
2023/01/27 02:06:00;;;;;;;35.90;15.80;;;;;;;1.30;63.91;99398.94;5205154;28;20136;-71
2023/01/27 02:08:51;;;;;;;35.03;15.15;;;;;;;1.20;63.80;99387.25;5204167;28;20108;-71
2023/01/27 02:11:41;;;;;;;36.75;15.20;;;;;;;1.31;63.09;99402.41;5197401;28;20455;-70
2023/01/27 02:14:32;;;;;;;34.85;15.35;;;;;;;1.34;63.69;99397.88;5184753;28;20100;-70
2023/01/27 02:17:22;;;;;;;33.90;15.55;;;;;;;1.17;63.93;99397.84;5183720;28;20147;-71
2023/01/27 02:20:21;;;;;;;32.00;15.05;;;;;;;1.28;64.57;99398.16;5184493;28;20140;-72
2023/01/27 02:23:35;;;;;;;31.48;14.73;;;;;;;1.29;63.98;99394.66;5184217;28;20054;-71
2023/01/27 02:26:25;;;;;;;;;;;;;;;1.27;63.33;99393.03;5191860;28;20133;-71
2023/01/27 02:29:16;;;;;;;28.48;14.43;;;;;;;1.26;64.49;99386.97;5199345;28;19995;-71
2023/01/27 02:32:06;;;;;;;34.88;15.68;;;;;;;1.21;64.34;99375.88;5203659;28;20059;-71
2023/01/27 02:34:56;;;;;;;31.60;14.82;;;;;;;1.18;63.62;99396.94;5203710;28;20080;-70
2023/01/27 02:37:50;;;;;;;35.25;16.63;;;;;;;1.14;63.78;99401.47;5203770;28;20124;-71
2023/01/27 02:40:41;;;;;;;34.25;15.25;;;;;;;1.05;63.71;99401.06;5192452;28;20104;-71
2023/01/27 02:43:31;;;;;;;39.30;16.63;;;;;;;1.25;63.95;99392.25;5181762;28;20235;-71
2023/01/27 02:46:22;;;;;;;33.33;15.57;;;;;;;1.29;63.81;99383.34;5182406;28;20093;-71
2023/01/27 02:49:12;;;;;;;37.78;17.20;;;;;;;1.23;63.59;99375.81;5183318;28;20049;-70
2023/01/27 02:52:03;;;;;;;37.78;17.08;;;;;;;1.33;63.91;99385.72;5182087;28;20054;-71
2023/01/27 02:54:55;;;;;;;35.83;16.17;;;;;;;1.35;63.53;99383.03;5178027;28;20072;-71
2023/01/27 02:57:45;;;;;;;32.03;14.98;;;;;;;1.25;64.40;99379.19;5189819;28;20417;-70
2023/01/27 03:01:01;;;;;;;39.97;17.35;;;;;;;1.10;64.46;99378.19;5190261;28;20073;-70
2023/01/27 03:03:52;;;;;;;39.70;16.85;;;;;;;1.21;64.14;99388.09;5182310;28;20077;-71
2023/01/27 03:06:42;;;;;;;35.42;15.65;;;;;;;0.98;65.17;99386.59;5182315;28;20037;-70
2023/01/27 03:09:32;;;;;;;36.25;16.10;;;;;;;1.08;64.46;99380.03;5182742;28;20065;-71
2023/01/27 03:12:23;;;;;;;36.08;17.15;;;;;;;0.81;64.28;99361.31;5182983;28;20049;-70
2023/01/27 03:18:23;;;;;;;37.15;16.88;;;;;;;0.84;64.75;99398.56;5182719;28;20532;-71
2023/01/27 03:21:16;;;;;;;39.50;16.77;;;;;;;0.88;65.79;99392.25;5181419;28;20058;-70
2023/01/27 03:24:07;;;;;;;39.75;17.35;;;;;;;1.03;65.80;99384.63;5182831;28;20054;-70
2023/01/27 03:26:57;;;;;;;40.58;17.75;;;;;;;0.92;65.11;99390.34;5186168;28;20507;-70
2023/01/27 03:30:04;;;;;;;36.47;17.23;;;;;;;1.01;65.76;99404.75;5182003;28;20701;-70
2023/01/27 03:32:55;;;;;;;41.20;18.33;;;;;;;0.98;65.43;99399.66;5167897;28;20153;-70
2023/01/27 03:48:48;;;;;;;43.03;18.75;;;;;;;1.11;65.41;99403.38;5183126;28;20275;-70
2023/01/27 03:51:38;;;;;;;41.85;17.85;;;;;;;1.13;65.09;99391.94;5183034;28;20057;-70
2023/01/27 03:54:28;;;;;;;43.97;19.23;;;;;;;1.25;65.15;99402.69;5183210;28;20424;-70
2023/01/27 03:57:18;;;;;;;36.75;17.83;;;;;;;1.18;64.87;99395.16;5191819;28;20124;-70
2023/01/27 04:00:09;;;;;;;42.55;19.00;;;;;;;1.21;64.75;99406.38;5183322;28;20097;-70
2023/01/27 04:09:35;;;;;;;42.60;19.02;;;;;;;1.23;65.57;99410.63;5183279;28;20551;-70
2023/01/27 04:12:25;;;;;;;42.80;18.70;;;;;;;1.23;65.04;99408.00;5180444;28;20159;-70
2023/01/27 04:15:16;;;;;;;46.05;20.42;;;;;;;1.19;64.54;99409.06;5180076;28;20104;-70
2023/01/27 04:18:08;;;;;;;43.92;19.92;;;;;;;1.21;65.11;99414.22;5180843;28;20049;-69
2023/01/27 04:20:58;;;;;;;41.78;18.90;;;;;;;1.00;65.80;99426.56;5182050;28;20050;-70
2023/01/27 04:23:48;;;;;;;48.00;19.17;;;;;;;0.94;65.56;99415.47;5169784;28;20057;-70
2023/01/27 04:26:40;;;;;;;42.85;19.08;;;;;;;1.13;65.21;99425.91;5183393;28;20412;-71
2023/01/27 04:29:36;;;;;;;43.33;18.60;;;;;;;1.14;64.99;99384.94;5184808;28;20077;-69
2023/01/27 04:32:26;;;;;;;44.47;19.58;;;;;;;1.09;64.93;99410.44;5185569;28;20049;-69
2023/01/27 04:35:17;;;;;;;43.50;18.67;;;;;;;1.13;65.77;99419.81;5185146;28;20137;-69
2023/01/27 04:38:11;;;;;;;44.90;18.27;;;;;;;1.15;65.15;99429.25;5188043;28;20052;-72
2023/01/27 04:41:02;;;;;;;41.92;18.08;;;;;;;1.18;64.48;99430.88;5183402;28;20064;-70
2023/01/27 04:43:52;;;;;;;42.67;17.70;;;;;;;1.33;64.56;99422.31;5167740;28;20441;-70
2023/01/27 04:46:42;;;;;;;39.33;17.77;;;;;;;1.27;65.08;99416.53;5181884;28;20432;-69
2023/01/27 04:49:32;;;;;;;38.05;16.70;;;;;;;1.15;65.22;99436.25;5181927;28;20073;-70
2023/01/27 04:52:23;;;;;;;39.25;16.48;;;;;;;1.23;64.74;99420.22;5170131;28;20408;-69
2023/01/27 04:55:13;;;;;;;38.65;15.65;;;;;;;1.34;65.22;99420.53;5192737;28;20447;-69
2023/01/27 04:58:04;;;;;;;39.25;15.98;;;;;;;1.07;64.88;99417.50;5185349;28;20107;-69
2023/01/27 05:00:54;;;;;;;33.25;15.07;;;;;;;1.15;64.54;99424.03;5193643;28;20068;-71
2023/01/27 05:03:44;;;;;;;35.25;15.15;;;;;;;0.95;66.70;99424.16;5185793;28;20455;-70
2023/01/27 05:06:34;;;;;;;35.10;15.25;;;;;;;1.32;64.59;99419.75;5185428;28;20396;-71
2023/01/27 05:09:25;;;;;;;36.80;14.93;;;;;;;1.22;64.73;99418.50;5185400;28;20072;-70
2023/01/27 05:12:15;;;;;;;34.10;14.20;;;;;;;1.30;64.18;99409.41;5191999;28;20583;-69
2023/01/27 05:15:06;;;;;;;34.53;15.18;;;;;;;1.35;64.49;99415.22;5193427;28;20054;-70
2023/01/27 05:17:56;;;;;;;31.00;14.43;;;;;;;1.07;64.45;99414.91;5183642;28;20463;-70
2023/01/27 05:20:46;;;;;;;31.50;14.30;;;;;;;1.36;64.74;99421.31;5183541;28;20049;-70
2023/01/27 05:23:38;;;;;;;34.30;15.20;;;;;;;1.44;64.00;99431.38;5185137;28;20050;-70
2023/01/27 05:26:28;;;;;;;32.53;14.40;;;;;;;1.37;64.01;99409.94;5188584;28;20063;-70
2023/01/27 05:29:18;;;;;;;32.55;14.32;;;;;;;1.49;64.29;99417.19;5192387;28;20099;-69
2023/01/27 05:32:08;;;;;;;34.60;15.38;;;;;;;1.15;64.57;99425.81;5185484;28;20452;-69
2023/01/27 05:34:58;;;;;;;31.90;14.60;;;;;;;1.37;64.07;99416.00;5184300;28;20060;-69
2023/01/27 05:37:48;;;;;;;35.53;14.85;;;;;;;1.49;63.92;99440.69;5184142;28;20192;-70
2023/01/27 05:40:38;;;;;;;32.47;14.40;;;;;;;1.41;64.16;99437.59;5184825;28;20045;-70
2023/01/27 05:43:30;;;;;;;38.55;15.65;;;;;;;1.51;64.85;99446.69;5185332;28;20115;-70
2023/01/27 05:46:23;;;;;;;31.27;15.10;;;;;;;1.50;64.91;99447.59;5184620;28;20088;-71
2023/01/27 05:49:13;;;;;;;33.17;15.65;;;;;;;1.50;63.76;99445.00;5184053;28;20676;-72
2023/01/27 05:52:03;;;;;;;32.58;15.13;;;;;;;1.21;63.77;99435.97;5184678;28;20097;-70
2023/01/27 05:54:53;;;;;;;31.00;14.07;;;;;;;1.50;63.80;99450.22;5185284;28;20049;-68
2023/01/27 05:57:43;;;;;;;31.30;14.32;;;;;;;1.53;63.61;99442.22;5185825;28;20046;-71
2023/01/27 06:00:33;;;;;;;32.33;14.75;;;;;;;1.53;63.50;99438.78;5181340;28;20127;-71
2023/01/27 06:03:23;;;;;;;29.15;14.23;;;;;;;1.02;64.15;99422.09;5183407;28;20188;-70
2023/01/27 06:06:15;;;;;;;35.28;15.25;;;;;;;1.21;65.17;99464.69;5183219;28;20053;-69
2023/01/27 06:09:05;;;;;;;33.38;15.15;;;;;;;1.26;64.16;99438.34;5184696;28;20061;-72
2023/01/27 06:11:55;;;;;;;38.05;15.57;;;;;;;1.50;63.81;99446.78;5194409;28;20053;-69
2023/01/27 06:14:45;;;;;;;34.15;14.93;;;;;;;1.28;64.67;99445.19;5192294;28;20138;-68
2023/01/27 06:17:35;;;;;;;34.10;14.75;;;;;;;1.55;64.32;99442.97;5180069;28;20050;-70
2023/01/27 06:20:25;;;;;;;33.67;14.48;;;;;;;1.54;63.13;99441.31;5181535;28;20058;-69
2023/01/27 06:23:16;;;;;;;33.85;15.18;;;;;;;1.36;63.95;99437.84;5182685;28;20496;-75
2023/01/27 06:26:09;;;;;;;32.15;14.80;;;;;;;1.53;64.15;99451.84;5169352;28;20050;-71
2023/01/27 06:28:59;;;;;;;35.80;14.68;;;;;;;1.28;65.10;99421.69;5182274;28;20566;-71
2023/01/27 06:31:49;;;;;;;33.40;14.77;;;;;;;1.57;64.11;99459.44;5162348;28;20057;-71
2023/01/27 06:34:40;;;;;;;32.63;15.35;;;;;;;1.47;64.00;99445.16;5183041;28;20057;-73
2023/01/27 06:37:31;;;;;;;32.17;15.38;;;;;;;1.46;64.17;99438.25;5182725;28;20056;-72
2023/01/27 06:40:21;;;;;;;37.28;16.52;;;;;;;1.53;63.88;99457.06;5192237;28;20108;-70
2023/01/27 06:43:13;;;;;;;35.35;15.85;;;;;;;1.52;63.94;99452.75;5170461;28;20200;-69
2023/01/27 06:46:04;;;;;;;34.13;14.77;;;;;;;1.60;64.07;99467.13;5165424;28;20410;-74
2023/01/27 06:48:55;;;;;;;38.13;15.70;;;;;;;1.61;63.18;99468.81;5145490;28;20686;-71
2023/01/27 06:51:45;;;;;;;34.05;13.88;;;;;;;1.48;64.28;99472.13;5155420;28;20200;-71
2023/01/27 06:54:34;;;;;;;33.53;13.95;;;;;;;1.67;64.00;99485.13;5155280;28;20719;-70
2023/01/27 06:57:25;;;;;;;30.00;14.75;;;;;;;1.64;62.86;99480.91;5155588;28;20058;-69
2023/01/27 07:00:16;;;;;;;29.42;12.93;;;;;;;1.67;63.40;99477.28;5162836;28;20524;-71
2023/01/27 07:03:10;;;;;;;28.48;12.15;;;;;;;1.64;62.86;99500.03;5148534;28;20059;-67
2023/01/27 07:06:00;;;;;;;26.55;12.35;;;;;;;1.57;62.20;99518.72;5154689;28;20073;-67
2023/01/27 07:08:50;;;;;;;26.95;11.80;;;;;;;1.07;64.18;99520.19;5165529;28;20050;-67
2023/01/27 07:11:44;;;;;;;29.83;12.70;;;;;;;1.28;64.59;99518.34;5168687;28;20110;-70
2023/01/27 07:14:34;;;;;;;26.55;11.68;;;;;;;1.46;63.40;99521.84;5156520;28;20655;-70
2023/01/27 07:17:24;;;;;;;27.08;11.57;;;;;;;1.61;63.17;99510.63;5163898;28;20042;-70
2023/01/27 07:20:14;;;;;;;30.92;12.27;;;;;;;1.60;63.35;99519.41;5154056;28;20056;-69
2023/01/27 07:23:05;;;;;;;31.00;11.48;;;;;;;1.39;62.48;99531.75;5155692;28;20143;-69
2023/01/27 07:25:55;;;;;;;27.83;12.25;;;;;;;1.51;62.83;99524.22;5153415;28;20077;-69
2023/01/27 07:28:44;;;;;;;30.15;12.57;;;;;;;1.50;62.83;99522.56;5155480;28;21182;-69
2023/01/27 07:31:35;;;;;;;27.20;11.88;;;;;;;0.97;64.64;99512.88;5147320;28;20528;-70
2023/01/27 07:34:25;;;;;;;31.83;12.43;;;;;;;0.54;64.83;99509.59;5156139;28;20065;-70
2023/01/27 07:37:15;;;;;;;30.52;12.88;;;;;;;0.61;65.34;99529.28;5165021;28;20061;-69
2023/01/27 07:40:07;;;;;;;28.95;12.88;;;;;;;0.91;63.54;99540.94;5176184;28;20049;-70
2023/01/27 07:42:59;;;;;;;29.98;11.63;;;;;;;1.17;64.60;99536.28;5161711;28;20062;-70
2023/01/27 07:45:52;;;;;;;31.50;12.80;;;;;;;1.32;62.87;99514.66;5160063;28;20058;-69
2023/01/27 07:48:42;;;;;;;31.00;12.68;;;;;;;1.43;63.89;99539.44;5154385;28;20404;-71
2023/01/27 07:51:32;;;;;;;30.73;12.13;;;;;;;1.17;63.63;99542.34;5150674;28;20049;-70
2023/01/27 07:54:24;;;;;;;32.75;12.57;;;;;;;0.81;65.16;99539.66;5152486;28;20497;-69
2023/01/27 07:57:14;;;;;;;38.10;15.25;;;;;;;1.43;63.96;99550.75;5147512;28;20062;-69
2023/01/27 08:00:04;;;;;;;35.47;15.57;;;;;;;1.32;63.05;99553.84;5150797;28;20068;-68
2023/01/27 08:03:02;;;;;;;28.15;12.80;;;;;;;1.46;63.21;99548.00;5172339;28;20057;-69
2023/01/27 08:05:52;;;;;;;32.45;13.30;;;;;;;1.07;63.61;99548.09;5152567;28;20529;-68
2023/01/27 08:08:42;;;;;;;30.77;12.88;;;;;;;1.37;62.48;99548.41;5154747;28;20050;-70
2023/01/27 08:11:33;;;;;;;30.38;13.57;;;;;;;0.97;63.24;99559.88;5152952;28;20109;-69
2023/01/27 08:14:23;;;;;;;24.15;10.52;;;;;;;0.86;63.06;99542.94;5153780;28;20508;-69
2023/01/27 08:17:13;;;;;;;32.20;13.00;;;;;;;1.03;64.54;99549.16;5153078;28;20423;-70
2023/01/27 08:20:04;;;;;;;31.98;14.55;;;;;;;1.45;63.14;99567.19;5147419;28;20800;-69
2023/01/27 08:22:54;;;;;;;32.08;13.10;;;;;;;1.56;62.66;99571.91;5149837;28;20176;-69
2023/01/27 08:25:52;;;;;;;35.38;12.68;;;;;;;1.70;62.73;99561.63;5154309;28;20131;-70
2023/01/27 08:28:43;;;;;;;32.50;13.43;;;;;;;1.70;63.43;99569.47;5160432;28;20111;-69
2023/01/27 08:31:33;;;;;;;32.28;13.63;;;;;;;1.59;62.97;99575.22;5168525;28;20343;-70
2023/01/27 08:34:23;;;;;;;32.78;13.95;;;;;;;1.61;62.92;99564.69;5164011;28;20189;-69
2023/01/27 08:37:13;;;;;;;32.67;13.10;;;;;;;1.27;63.52;99574.13;5157560;28;20443;-69
2023/01/27 08:40:03;;;;;;;37.42;14.43;;;;;;;1.11;65.13;99571.38;5163959;28;20050;-70
2023/01/27 08:42:54;;;;;;;32.85;14.23;;;;;;;1.36;63.63;99573.69;5156682;28;20086;-70
2023/01/27 08:45:45;;;;;;;36.13;13.82;;;;;;;1.62;62.38;99580.31;5155344;28;20454;-69
2023/01/27 08:48:36;;;;;;;34.42;13.90;;;;;;;1.44;63.57;99589.00;5156225;28;20046;-70
2023/01/27 08:51:27;;;;;;;38.15;14.27;;;;;;;0.67;65.44;99589.88;5157627;28;20068;-70
2023/01/27 08:54:17;;;;;;;44.08;14.63;;;;;;;1.48;63.27;99584.50;5155128;28;20054;-69
2023/01/27 08:57:08;;;;;;;37.80;15.45;;;;;;;1.52;63.02;99586.03;5155886;28;20061;-68
2023/01/27 08:59:58;;;;;;;39.22;16.60;;;;;;;1.37;63.44;99591.06;5174934;28;20188;-70
2023/01/27 09:02:51;;;;;;;36.83;15.18;;;;;;;1.57;63.21;99591.91;5161217;28;20084;-70
2023/01/27 09:05:41;;;;;;;37.63;14.48;;;;;;;1.81;62.32;99592.50;5158808;28;20069;-68
2023/01/27 09:08:31;;;;;;;36.05;14.70;;;;;;;1.87;63.11;99585.19;5159010;28;20130;-70
2023/01/27 09:11:21;;;;;;;37.72;15.48;;;;;;;1.62;63.02;99582.06;5159604;28;20557;-69
2023/01/27 09:14:11;;;;;;;36.35;14.63;;;;;;;1.77;61.80;99568.25;5151464;28;20080;-69
2023/01/27 09:17:02;;;;;;;33.85;13.60;;;;;;;1.87;61.85;99579.13;5157289;28;20131;-68
2023/01/27 09:19:52;;;;;;;35.75;14.65;;;;;;;2.09;61.92;99578.94;5152926;28;20140;-68
2023/01/27 09:22:42;;;;;;;31.27;12.77;;;;;;;1.95;60.69;99576.97;5160322;28;20079;-70
2023/01/27 09:25:33;;;;;;;34.90;13.45;;;;;;;2.17;60.49;99576.75;5162673;28;20106;-70
2023/01/27 09:28:23;;;;;;;38.33;14.55;;;;;;;2.06;60.57;99590.38;5160069;28;20145;-70
2023/01/27 09:31:13;;;;;;;32.28;12.40;;;;;;;2.15;60.99;99589.06;5161809;28;20073;-70
2023/01/27 09:34:04;;;;;;;35.05;13.20;;;;;;;1.96;61.26;99577.84;5154482;28;20057;-69
2023/01/27 09:36:58;;;;;;;34.47;12.80;;;;;;;1.98;60.91;99575.97;5158786;28;20096;-69
2023/01/27 09:39:51;;;;;;;34.42;12.63;;;;;;;1.98;60.25;99586.44;5154204;28;20050;-69
2023/01/27 09:43:02;;;;;;;29.25;12.10;;;;;;;2.34;60.93;99589.84;5148141;28;20061;-69
2023/01/27 09:46:07;;;;;;;29.38;10.93;;;;;;;2.26;59.44;99594.63;5243477;22;20068;-73
2023/01/27 09:49:10;;;;;;;27.05;10.88;;;;;;;2.29;58.88;99588.41;5182662;28;20061;-73
2023/01/27 09:52:22;;;;;;;33.30;12.60;;;;;;;2.50;59.59;99589.91;5180665;28;20495;-73
2023/01/27 09:55:50;;;;;;;24.75;10.07;;;;;;;2.39;60.55;99588.78;5183774;28;20053;-73
2023/01/27 09:59:08;;;;;;;26.45;10.57;;;;;;;2.47;59.07;99589.22;5176064;28;20130;-73
2023/01/27 10:02:13;;;;;;;20.30;9.07;;;;;;;2.14;58.97;99574.28;5171478;28;20077;-74
2023/01/27 10:05:47;;;;;;;25.77;10.40;;;;;;;2.28;59.30;99587.53;5169125;28;20077;-72
2023/01/27 10:08:43;;;;;;;28.13;11.70;;;;;;;2.52;59.72;99595.09;5167694;28;20065;-74
2023/01/27 10:11:49;;;;;;;24.33;9.90;;;;;;;2.56;59.32;99591.38;5164691;28;20239;-73
2023/01/27 10:14:55;;;;;;;19.63;9.00;;;;;;;2.82;59.05;99585.63;5161163;28;20438;-73
2023/01/27 10:18:16;;;;;;;23.17;8.48;;;;;;;2.67;58.13;99573.34;5163537;28;20042;-72
2023/01/27 10:21:30;;;;;;;28.70;13.32;;;;;;;2.39;57.94;99583.53;5166022;28;20085;-74
2023/01/27 10:24:39;;;;;;;29.67;15.65;;;;;;;2.70;59.64;99574.94;5169660;28;20432;-73
2023/01/27 10:27:46;;;;;;;30.63;10.40;;;;;;;2.73;59.61;99575.63;5163993;28;20057;-74
2023/01/27 10:30:38;;;;;;;28.42;12.75;;;;;;;2.82;60.32;99585.63;5156935;28;20211;-74
2023/01/27 10:33:50;;;;;;;28.52;12.77;;;;;;;3.01;59.87;99584.66;5165478;28;20084;-74
2023/01/27 10:36:49;;;;;;;24.80;10.05;;;;;;;2.51;58.73;99580.28;5163301;28;20060;-74
2023/01/27 10:39:48;;;;;;;23.52;10.65;;;;;;;2.39;59.67;99579.16;5164006;28;20053;-77
2023/01/27 10:43:07;;;;;;;33.03;11.30;;;;;;;2.98;59.35;99582.19;5164714;28;20060;-75
2023/01/27 10:46:08;;;;;;;40.72;14.25;;;;;;;2.90;60.27;99574.75;5161609;28;20076;-74
2023/01/27 10:49:21;;;;;;;29.33;12.13;;;;;;;2.91;58.98;99588.69;5162913;28;20046;-74
2023/01/27 10:52:21;;;;;;;24.75;11.20;;;;;;;2.87;59.60;99576.69;5168105;28;20723;-74
2023/01/27 10:55:50;;;;;;;27.88;12.95;;;;;;;2.83;59.77;99591.72;5170703;28;20096;-74
2023/01/27 10:59:05;;;;;;;29.67;12.63;;;;;;;2.75;59.83;99586.88;5144420;28;20107;-75
2023/01/27 11:02:02;;;;;;;40.97;17.40;;;;;;;2.81;60.08;99594.44;5178278;28;20050;-72
2023/01/27 11:05:00;;;;;;;41.50;17.85;;;;;;;2.81;60.48;99597.06;5178561;28;20522;-76
2023/01/27 11:07:58;;;;;;;48.63;17.80;;;;;;;2.94;59.85;99589.38;5162559;28;20787;-72
2023/01/27 11:14:27;;;;;;;59.72;22.05;;;;;;;2.91;60.17;99578.22;5176889;28;20179;-73
2023/01/27 11:17:30;;;;;;;31.42;13.07;;;;;;;2.96;58.78;99590.16;5171085;28;20492;-74
2023/01/27 11:20:29;;;;;;;31.37;13.80;;;;;;;3.00;59.62;99585.59;5167376;28;20057;-73
2023/01/27 11:23:25;;;;;;;57.45;22.50;;;;;;;2.92;59.99;99582.53;5172675;28;20058;-73
2023/01/27 11:26:56;;;;;;;26.23;11.40;;;;;;;2.88;59.73;99594.09;5170404;28;20128;-73
2023/01/27 11:29:53;;;;;;;25.52;11.73;;;;;;;2.63;60.00;99587.50;5139226;28;20130;-76
2023/01/27 11:33:02;;;;;;;28.70;12.93;;;;;;;2.81;59.69;99583.06;5162451;28;20066;-74
2023/01/27 11:35:52;;;;;;;30.55;12.27;;;;;;;3.00;59.32;99575.09;5161504;28;20080;-71
2023/01/27 11:38:42;;;;;;;33.58;13.90;;;;;;;2.81;60.17;99569.97;5178590;28;20060;-71
2023/01/27 11:41:37;;;;;;;52.83;20.23;;;;;;;2.87;59.84;99560.97;5179583;28;20515;-73
2023/01/27 11:44:32;;;;;;;33.53;14.00;;;;;;;2.47;60.03;99560.44;5177532;28;20265;-72
2023/01/27 11:47:36;;;;;;;49.35;19.23;;;;;;;2.70;60.10;99562.69;5162247;28;20093;-73
2023/01/27 11:50:33;;;;;;;43.08;17.13;;;;;;;2.79;60.93;99574.47;5175774;28;20578;-71
2023/01/27 11:53:35;;;;;;;35.58;15.13;;;;;;;2.68;60.24;99561.94;5178113;28;20124;-72
2023/01/27 11:56:27;;;;;;;31.90;13.73;;;;;;;2.83;60.69;99544.56;5173150;28;20100;-72
2023/01/27 11:59:29;;;;;;;28.70;13.25;;;;;;;2.88;60.45;99546.94;5177262;28;20121;-73
2023/01/27 12:02:31;;;;;;;29.00;13.90;;;;;;;2.95;60.70;99553.56;5169980;28;20188;-72
2023/01/27 12:05:30;;;;;;;29.83;14.57;;;;;;;3.09;60.63;99558.91;5161792;28;20113;-71
2023/01/27 12:08:36;;;;;;;30.63;14.27;;;;;;;2.56;60.91;99559.97;5174878;28;20061;-72
2023/01/27 12:11:31;;;;;;;30.15;14.10;;;;;;;2.99;60.30;99560.31;5179808;28;20046;-72
2023/01/27 12:14:22;;;;;;;35.70;13.60;;;;;;;2.92;60.42;99543.25;5181853;28;20046;-71
2023/01/27 12:17:20;;;;;;;30.20;13.15;;;;;;;2.86;60.13;99528.69;5185749;28;20049;-71
2023/01/27 12:20:20;;;;;;;27.95;12.07;;;;;;;2.85;59.59;99547.09;5179067;28;20188;-72
2023/01/27 12:23:15;;;;;;;34.70;13.30;;;;;;;3.00;60.67;99547.13;5173507;28;20068;-71
2023/01/27 12:26:07;;;;;;;28.13;12.10;;;;;;;3.09;60.54;99537.94;5171330;28;20061;-70
2023/01/27 12:29:03;;;;;;;28.27;11.85;;;;;;;3.02;60.11;99544.44;5176968;28;20086;-70
2023/01/27 12:31:56;;;;;;;29.17;12.52;;;;;;;3.08;59.56;99538.88;5168042;28;20069;-70
2023/01/27 12:34:52;;;;;;;30.27;13.65;;;;;;;3.03;60.78;99536.50;5181973;28;20542;-71
2023/01/27 12:37:43;;;;;;;27.90;11.80;;;;;;;2.76;59.40;99536.19;5171834;28;20050;-71
2023/01/27 12:40:33;;;;;;;28.60;10.70;;;;;;;2.59;59.79;99539.69;5170470;28;20060;-71
2023/01/27 12:43:23;;;;;;;25.50;10.52;;;;;;;2.81;60.22;99538.56;5177475;28;20053;-72
2023/01/27 12:46:19;;;;;;;27.02;11.73;;;;;;;2.88;60.13;99519.00;5172803;28;20053;-70
2023/01/27 12:49:13;;;;;;;28.67;10.50;;;;;;;2.94;59.40;99541.38;5170300;28;20042;-71
2023/01/27 12:52:07;;;;;;;31.55;11.85;;;;;;;2.85;60.22;99542.72;5175158;28;20157;-71
2023/01/27 12:54:57;;;;;;;25.35;12.10;;;;;;;2.99;60.23;99545.44;5170634;28;20187;-72
2023/01/27 12:57:48;;;;;;;33.78;16.23;;;;;;;3.03;60.23;99546.97;5172788;28;20054;-71
2023/01/27 13:00:44;;;;;;;25.70;11.88;;;;;;;2.82;60.09;99532.41;5174465;28;20053;-71
2023/01/27 13:03:40;;;;;;;25.77;11.50;;;;;;;3.06;60.55;99541.56;5170312;28;20908;-71
2023/01/27 13:06:40;;;;;;;27.50;11.68;;;;;;;3.08;60.01;99541.50;5174729;28;20080;-70
2023/01/27 13:09:35;;;;;;;25.05;11.43;;;;;;;3.04;59.15;99526.84;5178775;28;20770;-71
2023/01/27 13:12:27;;;;;;;63.13;24.23;;;;;;;3.05;59.66;99533.81;5160031;28;20046;-71
2023/01/27 13:15:27;;;;;;;37.58;18.55;;;;;;;3.06;60.23;99532.88;5165814;28;20516;-71
2023/01/27 13:18:20;;;;;;;24.85;12.20;;;;;;;3.00;59.00;99539.28;5169249;28;20057;-71
2023/01/27 13:21:17;;;;;;;26.80;11.05;;;;;;;3.11;59.64;99543.91;5178099;28;20054;-71
2023/01/27 13:24:20;;;;;;;24.23;10.55;;;;;;;2.51;59.94;99547.09;5171989;28;20046;-71
2023/01/27 13:27:16;;;;;;;24.05;10.32;;;;;;;2.39;60.90;99554.75;5179673;28;20045;-71
2023/01/27 13:30:19;;;;;;;22.83;10.50;;;;;;;2.24;61.61;99551.97;5182170;28;20072;-71
2023/01/27 13:33:28;;;;;;;22.38;10.82;;;;;;;2.64;60.76;99549.09;5171897;28;20133;-71
2023/01/27 13:36:34;;;;;;;23.05;10.85;;;;;;;2.53;61.30;99553.09;5163998;28;20093;-71
2023/01/27 13:39:48;;;;;;;23.63;10.57;;;;;;;2.29;61.16;99551.75;5180603;28;20042;-70
2023/01/27 13:42:42;;;;;;;;;;;;;;;2.18;60.85;99554.06;5163299;28;20054;-70
2023/01/27 13:46:17;;;;;;;27.40;11.68;;;;;;;2.51;61.10;99559.34;5164262;28;20341;-70
2023/01/27 13:49:16;;;;;;;23.35;11.10;;;;;;;2.51;61.01;99562.81;5135816;28;20065;-70
2023/01/27 13:52:06;;;;;;;27.48;11.10;;;;;;;2.61;61.13;99562.34;5180805;28;20416;-70
2023/01/27 13:54:57;;;;;;;23.73;11.27;;;;;;;2.54;61.46;99564.41;5183908;28;20057;-70
2023/01/27 13:58:12;;;;;;;30.67;12.18;;;;;;;2.77;60.49;99565.84;5183638;28;20060;-70
2023/01/27 14:01:26;;;;;;;25.45;11.70;;;;;;;2.63;60.49;99577.03;5183729;28;20141;-70
2023/01/27 14:04:38;;;;;;;27.05;12.63;;;;;;;2.54;61.30;99580.97;5182343;28;20081;-70
2023/01/27 14:07:47;;;;;;;31.15;12.48;;;;;;;2.80;61.31;99579.63;5182387;28;20064;-70
2023/01/27 14:10:54;;;;;;;31.48;12.57;;;;;;;2.60;60.08;99574.59;5182801;28;20056;-70